Time;durP1;ratioP1;P1;durP2;ratioP2;P2;SDS_P1;SDS_P2;PMS_P1;PMS_P2;Temp;Humidity;BMP_temperature;BMP_pressure;BME280_temperature;BME280_humidity;BME280_pressure;Samples;Min_cycle;Max_cycle;Signal;HPM_P1;HPM_P2
2021/12/30 00:00:34;;;;;;;0.30;0.30;;;12.10;99.90;;;;;;5075700;28;20419;-68
2021/12/30 00:03:00;;;;;;;0.30;0.30;;;12.00;99.90;;;;;;5075956;28;20809;-68
2021/12/30 00:05:26;;;;;;;0.30;0.30;;;12.00;99.90;;;;;;5075662;28;20428;-68
2021/12/30 00:07:52;;;;;;;0.30;0.30;;;11.90;99.90;;;;;;5075183;28;20399;-68
2021/12/30 00:10:18;;;;;;;0.30;0.30;;;12.00;99.90;;;;;;5075367;28;20758;-68
2021/12/30 00:12:44;;;;;;;0.30;0.30;;;11.90;99.90;;;;;;5075439;28;20459;-68
2021/12/30 00:15:10;;;;;;;0.30;0.30;;;11.80;99.90;;;;;;5075404;28;20997;-68
2021/12/30 00:17:36;;;;;;;0.30;0.30;;;11.90;99.90;;;;;;5075603;28;20562;-68
2021/12/30 00:20:06;;;;;;;0.30;0.30;;;12.00;99.90;;;;;;5075374;28;20412;-68
2021/12/30 00:22:33;;;;;;;0.30;0.30;;;12.10;99.90;;;;;;5074727;28;20997;-68
2021/12/30 00:24:59;;;;;;;0.30;0.30;;;12.00;99.90;;;;;;5075152;28;20526;-67
2021/12/30 00:27:25;;;;;;;0.30;0.30;;;12.00;99.90;;;;;;5075280;28;20442;-68
2021/12/30 00:29:50;;;;;;;0.30;0.30;;;12.10;99.90;;;;;;5075158;28;20494;-68
2021/12/30 00:32:16;;;;;;;0.30;0.30;;;12.10;99.90;;;;;;5075219;28;20259;-68
2021/12/30 00:34:42;;;;;;;0.30;0.30;;;12.10;99.90;;;;;;5075002;28;20193;-68
2021/12/30 00:37:07;;;;;;;0.30;0.30;;;12.10;99.90;;;;;;5075538;28;20165;-67
2021/12/30 00:39:33;;;;;;;0.30;0.30;;;12.00;99.90;;;;;;5075023;28;20633;-68
2021/12/30 00:41:59;;;;;;;0.30;0.30;;;11.80;99.90;;;;;;5075161;28;20534;-68
2021/12/30 00:44:24;;;;;;;0.30;0.30;;;11.60;99.90;;;;;;5074875;28;20200;-68
2021/12/30 00:46:50;;;;;;;0.30;0.30;;;11.70;99.90;;;;;;5074956;28;20631;-68
2021/12/30 00:49:16;;;;;;;0.30;0.30;;;11.70;99.90;;;;;;5074641;28;20591;-68
2021/12/30 00:51:42;;;;;;;0.30;0.30;;;11.80;99.90;;;;;;5074615;28;20201;-68
2021/12/30 00:54:07;;;;;;;0.30;0.30;;;12.00;99.90;;;;;;5074750;28;20193;-69
2021/12/30 00:56:33;;;;;;;0.30;0.30;;;12.00;99.90;;;;;;5074696;28;20625;-68
2021/12/30 00:58:59;;;;;;;0.30;0.30;;;12.00;99.90;;;;;;5074260;28;20200;-68
2021/12/30 01:01:25;;;;;;;0.30;0.30;;;11.90;99.90;;;;;;5074636;28;20569;-68
2021/12/30 01:03:51;;;;;;;0.30;0.30;;;11.90;99.90;;;;;;5074535;28;20185;-67
2021/12/30 01:06:18;;;;;;;0.30;0.30;;;11.80;99.90;;;;;;5074656;28;20518;-68
2021/12/30 01:08:44;;;;;;;0.30;0.30;;;11.80;99.90;;;;;;5074235;28;20449;-68
2021/12/30 01:11:11;;;;;;;0.30;0.30;;;11.90;99.90;;;;;;5074286;28;20448;-68
2021/12/30 01:13:40;;;;;;;0.30;0.30;;;11.90;99.90;;;;;;5074323;28;20162;-68
2021/12/30 01:16:16;;;;;;;0.30;0.30;;;12.00;99.90;;;;;;5074405;28;20816;-68
2021/12/30 01:19:03;;;;;;;0.30;0.30;;;12.00;99.90;;;;;;5074137;28;20403;-68
2021/12/30 01:21:34;;;;;;;0.30;0.30;;;12.00;99.90;;;;;;5072032;28;20416;-68
2021/12/30 01:24:02;;;;;;;0.70;0.70;;;12.10;99.90;;;;;;5074269;28;20427;-69
2021/12/30 01:26:28;;;;;;;0.30;0.30;;;12.10;99.90;;;;;;5074064;28;20412;-68
2021/12/30 01:28:54;;;;;;;0.30;0.30;;;12.20;99.90;;;;;;5073875;28;20415;-68
2021/12/30 01:31:20;;;;;;;0.30;0.30;;;12.20;99.90;;;;;;5073906;28;20201;-68
2021/12/30 01:33:47;;;;;;;0.30;0.30;;;12.20;99.90;;;;;;5073862;28;20196;-68
2021/12/30 01:36:16;;;;;;;0.30;0.30;;;12.10;99.90;;;;;;5073877;28;20777;-68
2021/12/30 01:38:43;;;;;;;0.30;0.30;;;12.10;99.90;;;;;;5073668;28;20412;-68
2021/12/30 01:41:10;;;;;;;0.30;0.30;;;12.10;99.90;;;;;;5074024;28;20503;-68
2021/12/30 01:43:36;;;;;;;0.30;0.30;;;12.10;99.90;;;;;;5073677;28;20897;-68
2021/12/30 01:46:05;;;;;;;0.30;0.30;;;12.10;99.90;;;;;;5073746;28;20400;-68
2021/12/30 01:48:31;;;;;;;0.30;0.30;;;12.10;99.90;;;;;;5073828;28;20502;-68
2021/12/30 01:50:57;;;;;;;0.30;0.30;;;11.90;99.90;;;;;;5073674;28;20534;-68
2021/12/30 01:53:22;;;;;;;0.40;0.40;;;12.00;99.90;;;;;;5073786;28;20177;-68
2021/12/30 01:55:49;;;;;;;0.30;0.30;;;11.90;99.90;;;;;;5073611;28;20420;-68
2021/12/30 01:58:16;;;;;;;0.30;0.30;;;11.90;99.90;;;;;;5073502;28;20587;-68
2021/12/30 02:00:45;;;;;;;0.30;0.30;;;11.80;99.90;;;;;;5073741;28;20458;-68
2021/12/30 02:03:11;;;;;;;0.30;0.30;;;11.80;99.90;;;;;;5073685;28;20252;-68
2021/12/30 02:05:38;;;;;;;0.30;0.30;;;11.80;99.90;;;;;;5073460;28;20267;-68
2021/12/30 02:08:10;;;;;;;0.30;0.30;;;11.90;99.90;;;;;;5073519;28;20216;-68
2021/12/30 02:10:35;;;;;;;0.30;0.30;;;11.90;99.90;;;;;;5073497;28;20162;-68
2021/12/30 02:13:01;;;;;;;0.30;0.30;;;11.80;99.90;;;;;;5073416;28;20407;-68
2021/12/30 02:15:27;;;;;;;0.30;0.30;;;11.80;99.90;;;;;;5073369;28;20564;-68
2021/12/30 02:17:54;;;;;;;0.30;0.30;;;11.90;99.90;;;;;;5073282;28;20176;-68
2021/12/30 02:20:45;;;;;;;0.30;0.30;;;11.80;99.90;;;;;;5073700;28;20782;-69
2021/12/30 02:23:16;;;;;;;0.30;0.30;;;11.80;99.90;;;;;;5073443;28;20173;-68
2021/12/30 02:25:42;;;;;;;0.30;0.30;;;11.80;99.90;;;;;;5073262;28;20787;-68
2021/12/30 02:28:10;;;;;;;0.30;0.30;;;11.70;99.90;;;;;;5073608;28;20402;-68
2021/12/30 02:30:37;;;;;;;0.30;0.30;;;11.70;99.90;;;;;;5073379;28;20173;-68
2021/12/30 02:33:04;;;;;;;0.30;0.30;;;11.60;99.90;;;;;;5076897;28;20406;-68
2021/12/30 02:35:31;;;;;;;0.30;0.30;;;11.70;99.90;;;;;;5077254;28;20430;-68
2021/12/30 02:37:57;;;;;;;0.30;0.30;;;11.70;99.90;;;;;;5077122;28;20400;-68
2021/12/30 02:40:28;;;;;;;0.30;0.30;;;11.70;99.90;;;;;;5077657;28;20169;-68
2021/12/30 02:42:54;;;;;;;0.30;0.30;;;11.70;99.90;;;;;;5077298;28;20478;-68
2021/12/30 02:45:20;;;;;;;0.30;0.30;;;11.80;99.90;;;;;;5077035;28;20420;-68
2021/12/30 02:47:46;;;;;;;0.30;0.30;;;11.70;99.90;;;;;;5077756;28;20192;-68
2021/12/30 02:50:11;;;;;;;0.30;0.30;;;11.70;99.90;;;;;;5077093;28;20176;-68
2021/12/30 02:52:37;;;;;;;0.30;0.30;;;11.70;99.90;;;;;;5076922;28;20197;-68
2021/12/30 02:55:03;;;;;;;0.30;0.30;;;11.60;99.90;;;;;;5076864;28;20766;-68
2021/12/30 02:57:29;;;;;;;0.30;0.30;;;11.50;99.90;;;;;;5076955;28;20169;-68
2021/12/30 02:59:54;;;;;;;0.30;0.30;;;11.60;99.90;;;;;;5076797;28;20675;-68
2021/12/30 03:02:20;;;;;;;0.30;0.30;;;11.60;99.90;;;;;;5076929;28;20696;-68
2021/12/30 03:04:46;;;;;;;0.40;0.40;;;11.70;99.90;;;;;;5076653;28;20216;-68
2021/12/30 03:07:11;;;;;;;0.30;0.30;;;11.60;99.90;;;;;;5076725;28;20630;-68
2021/12/30 03:09:37;;;;;;;0.30;0.30;;;11.50;99.90;;;;;;5076570;28;20253;-68
2021/12/30 03:12:03;;;;;;;0.30;0.30;;;11.50;99.90;;;;;;5076961;28;20197;-68
2021/12/30 03:14:29;;;;;;;0.30;0.30;;;11.50;99.90;;;;;;5076745;28;20201;-68
2021/12/30 03:16:55;;;;;;;0.30;0.30;;;11.60;99.90;;;;;;5076519;28;20917;-67
2021/12/30 03:19:21;;;;;;;0.30;0.30;;;11.60;99.90;;;;;;5076301;28;20185;-68
2021/12/30 03:21:47;;;;;;;0.30;0.30;;;11.60;99.90;;;;;;5076398;28;20519;-68
2021/12/30 03:24:13;;;;;;;0.30;0.30;;;11.60;99.90;;;;;;5076353;28;20193;-68
2021/12/30 03:26:38;;;;;;;0.30;0.30;;;11.70;99.90;;;;;;5076415;28;20661;-69
2021/12/30 03:29:05;;;;;;;0.30;0.30;;;11.60;99.90;;;;;;5076300;28;20404;-68
2021/12/30 03:31:31;;;;;;;0.30;0.30;;;11.60;99.90;;;;;;5076383;28;20450;-68
2021/12/30 03:33:57;;;;;;;0.30;0.30;;;11.70;99.90;;;;;;5076288;28;20428;-68
2021/12/30 03:36:25;;;;;;;0.30;0.30;;;11.80;99.90;;;;;;5076205;28;20897;-68
2021/12/30 03:38:53;;;;;;;0.30;0.30;;;11.70;99.90;;;;;;5076166;28;20219;-68
2021/12/30 03:41:22;;;;;;;0.30;0.30;;;11.70;99.90;;;;;;5076231;28;20582;-68
2021/12/30 03:43:48;;;;;;;0.30;0.30;;;11.80;99.90;;;;;;5075060;28;20196;-68
2021/12/30 03:46:14;;;;;;;0.30;0.30;;;11.90;99.90;;;;;;5076003;28;20174;-68
2021/12/30 03:48:43;;;;;;;0.30;0.30;;;11.80;99.90;;;;;;5075898;28;20218;-67
2021/12/30 03:51:13;;;;;;;0.30;0.30;;;11.80;99.90;;;;;;5075875;28;20454;-68
2021/12/30 03:53:41;;;;;;;0.30;0.30;;;11.80;99.90;;;;;;5076058;28;20426;-68
2021/12/30 03:56:12;;;;;;;0.30;0.30;;;11.80;99.90;;;;;;5075832;28;20205;-68
2021/12/30 03:58:40;;;;;;;0.30;0.30;;;11.80;99.90;;;;;;5075622;28;20275;-68
2021/12/30 04:01:06;;;;;;;0.30;0.30;;;11.80;99.90;;;;;;5075979;28;20461;-68
2021/12/30 04:03:32;;;;;;;0.30;0.30;;;11.70;99.90;;;;;;5075565;28;20400;-68
2021/12/30 04:05:57;;;;;;;0.30;0.30;;;11.70;99.90;;;;;;5075663;28;20181;-68
2021/12/30 04:08:23;;;;;;;0.30;0.30;;;11.80;99.90;;;;;;5075427;28;20169;-68
2021/12/30 04:10:49;;;;;;;0.30;0.30;;;11.70;99.90;;;;;;5075604;28;20411;-68
2021/12/30 04:13:15;;;;;;;0.30;0.30;;;11.80;99.90;;;;;;5075702;28;20435;-68
2021/12/30 04:15:41;;;;;;;0.30;0.30;;;11.80;99.90;;;;;;5075387;28;20233;-68
2021/12/30 04:18:07;;;;;;;0.30;0.30;;;11.80;99.90;;;;;;5075224;28;20414;-68
2021/12/30 04:20:32;;;;;;;0.30;0.30;;;11.80;99.90;;;;;;5075407;28;20806;-68
2021/12/30 04:22:58;;;;;;;0.30;0.30;;;11.80;99.90;;;;;;5075416;28;20184;-68
2021/12/30 04:25:24;;;;;;;0.30;0.30;;;11.90;99.90;;;;;;5075237;28;20231;-68
2021/12/30 04:27:49;;;;;;;0.30;0.30;;;11.90;99.90;;;;;;5075388;28;20256;-68
2021/12/30 04:30:15;;;;;;;0.30;0.30;;;11.90;99.90;;;;;;5075162;28;20514;-68
2021/12/30 04:32:42;;;;;;;0.30;0.30;;;11.80;99.90;;;;;;5075085;28;20197;-68
2021/12/30 04:35:09;;;;;;;0.30;0.30;;;11.90;99.90;;;;;;5075008;28;20213;-68
2021/12/30 04:37:36;;;;;;;0.30;0.30;;;11.90;99.90;;;;;;5075248;28;20162;-68
2021/12/30 04:40:04;;;;;;;0.40;0.40;;;11.90;99.90;;;;;;5074973;28;20227;-68
2021/12/30 04:42:30;;;;;;;0.30;0.30;;;11.90;99.90;;;;;;5075123;28;20407;-68
2021/12/30 04:44:56;;;;;;;0.30;0.30;;;11.90;99.90;;;;;;5074770;28;20193;-68
2021/12/30 04:47:22;;;;;;;0.30;0.30;;;11.90;99.90;;;;;;5074818;28;20738;-68
2021/12/30 04:49:49;;;;;;;0.30;0.30;;;11.90;99.90;;;;;;5074603;28;20639;-68
2021/12/30 04:52:15;;;;;;;0.30;0.30;;;11.90;99.90;;;;;;5074845;28;20459;-68
2021/12/30 04:54:40;;;;;;;0.30;0.30;;;11.90;99.90;;;;;;5074308;28;20921;-68
2021/12/30 04:57:06;;;;;;;0.30;0.30;;;11.80;99.90;;;;;;5074690;28;20165;-68
2021/12/30 04:59:31;;;;;;;0.30;0.30;;;11.80;99.90;;;;;;5074339;28;20236;-68
2021/12/30 05:01:58;;;;;;;0.30;0.30;;;11.80;99.90;;;;;;5074607;28;20528;-68
2021/12/30 05:04:24;;;;;;;0.30;0.30;;;11.80;99.90;;;;;;5074593;28;20246;-68
2021/12/30 05:06:50;;;;;;;0.30;0.30;;;11.90;99.90;;;;;;5074589;28;20698;-68
2021/12/30 05:09:15;;;;;;;0.30;0.30;;;11.90;99.90;;;;;;5074342;28;20407;-68
2021/12/30 05:11:42;;;;;;;0.30;0.30;;;12.00;99.90;;;;;;5074479;28;20690;-68
2021/12/30 05:14:09;;;;;;;0.30;0.30;;;12.00;99.90;;;;;;5074367;28;20192;-68
2021/12/30 05:16:36;;;;;;;0.30;0.30;;;12.00;99.90;;;;;;5074467;28;20415;-68
2021/12/30 05:19:02;;;;;;;0.30;0.30;;;12.00;99.90;;;;;;5074096;28;20964;-68
2021/12/30 05:21:28;;;;;;;0.30;0.30;;;11.90;99.90;;;;;;5074404;28;20414;-68
2021/12/30 05:23:53;;;;;;;0.30;0.30;;;11.90;99.90;;;;;;5074187;28;20268;-68
2021/12/30 05:26:19;;;;;;;0.30;0.30;;;12.00;99.90;;;;;;5074024;28;20165;-68
2021/12/30 05:28:45;;;;;;;0.30;0.30;;;12.00;99.90;;;;;;5074220;28;20234;-68
2021/12/30 05:31:11;;;;;;;0.30;0.30;;;12.00;99.90;;;;;;5074170;28;20231;-68
2021/12/30 05:33:37;;;;;;;0.30;0.30;;;12.00;99.90;;;;;;5074125;28;20166;-67
2021/12/30 05:36:03;;;;;;;0.30;0.30;;;12.10;99.90;;;;;;5073936;28;20162;-68
2021/12/30 05:38:29;;;;;;;0.30;0.30;;;12.00;99.90;;;;;;5073906;28;20408;-68
2021/12/30 05:40:55;;;;;;;0.30;0.30;;;12.10;99.90;;;;;;5074034;28;20178;-69
2021/12/30 05:43:20;;;;;;;0.30;0.30;;;12.00;99.90;;;;;;5074876;28;20218;-68
2021/12/30 05:45:46;;;;;;;0.30;0.30;;;12.00;99.90;;;;;;5074155;28;20230;-68
2021/12/30 05:48:12;;;;;;;0.30;0.30;;;12.00;99.90;;;;;;5073653;28;20445;-68
2021/12/30 05:50:37;;;;;;;0.30;0.30;;;12.00;99.90;;;;;;5073984;28;20193;-68
2021/12/30 05:53:03;;;;;;;0.30;0.30;;;12.00;99.90;;;;;;5073884;28;20173;-69
2021/12/30 05:55:30;;;;;;;0.30;0.30;;;12.00;99.90;;;;;;5073548;28;20189;-68
2021/12/30 05:57:56;;;;;;;0.30;0.30;;;12.00;99.90;;;;;;5073648;28;20399;-68
2021/12/30 06:00:26;;;;;;;0.30;0.30;;;12.00;99.90;;;;;;5073538;28;20780;-68
2021/12/30 06:02:52;;;;;;;0.30;0.30;;;12.00;99.90;;;;;;5073782;28;20252;-68
2021/12/30 06:05:17;;;;;;;0.30;0.30;;;11.90;99.90;;;;;;5073475;28;20739;-68
2021/12/30 06:07:44;;;;;;;0.30;0.30;;;11.90;99.90;;;;;;5073086;28;20248;-68
2021/12/30 06:10:11;;;;;;;0.30;0.30;;;11.90;99.90;;;;;;5072187;28;20419;-68
2021/12/30 06:12:37;;;;;;;0.30;0.30;;;11.80;99.90;;;;;;5073529;28;20205;-68
2021/12/30 06:15:03;;;;;;;0.30;0.30;;;11.80;99.90;;;;;;5073368;28;20207;-68
2021/12/30 06:17:29;;;;;;;0.30;0.30;;;11.80;99.90;;;;;;5073453;28;20169;-68
2021/12/30 06:19:55;;;;;;;0.30;0.30;;;11.80;99.90;;;;;;5073329;28;20206;-68
2021/12/30 06:22:20;;;;;;;0.30;0.30;;;11.80;99.90;;;;;;5073516;28;20256;-68
2021/12/30 06:24:46;;;;;;;0.30;0.30;;;11.80;99.90;;;;;;5073463;28;20648;-68
2021/12/30 06:27:12;;;;;;;0.30;0.30;;;11.80;99.90;;;;;;5073557;28;20256;-68
2021/12/30 06:29:37;;;;;;;0.30;0.30;;;11.80;99.90;;;;;;5073230;28;20207;-68
2021/12/30 06:32:04;;;;;;;0.30;0.30;;;11.70;99.90;;;;;;5073303;28;20280;-68
2021/12/30 06:34:30;;;;;;;0.30;0.30;;;11.70;99.90;;;;;;5073201;28;20563;-68
2021/12/30 06:36:56;;;;;;;0.30;0.30;;;11.70;99.90;;;;;;5073215;28;20165;-68
2021/12/30 06:39:21;;;;;;;0.30;0.30;;;11.70;99.90;;;;;;5073044;28;20214;-68
2021/12/30 06:41:47;;;;;;;0.40;0.40;;;11.60;99.90;;;;;;5073190;28;20173;-68
2021/12/30 06:44:13;;;;;;;0.30;0.30;;;11.60;99.90;;;;;;5073080;28;20744;-68
2021/12/30 06:46:39;;;;;;;0.30;0.30;;;11.60;99.90;;;;;;5073463;28;20174;-68
2021/12/30 06:49:08;;;;;;;0.30;0.30;;;11.60;99.90;;;;;;5073083;28;20197;-68
2021/12/30 06:51:35;;;;;;;0.30;0.30;;;11.60;99.90;;;;;;5073163;28;20193;-68
2021/12/30 06:54:02;;;;;;;0.30;0.30;;;11.60;99.90;;;;;;5073140;28;20253;-68
2021/12/30 06:56:28;;;;;;;0.30;0.30;;;11.60;99.90;;;;;;5073254;28;20174;-68
2021/12/30 06:58:54;;;;;;;0.30;0.30;;;11.50;99.90;;;;;;5073012;28;20193;-68
2021/12/30 07:01:19;;;;;;;0.30;0.30;;;11.40;99.90;;;;;;5073096;28;20169;-68
2021/12/30 07:03:45;;;;;;;0.30;0.30;;;11.40;99.90;;;;;;5073044;28;20953;-68
2021/12/30 07:06:11;;;;;;;0.30;0.30;;;11.40;99.90;;;;;;5073590;28;20173;-68
2021/12/30 07:08:37;;;;;;;0.30;0.30;;;11.40;99.90;;;;;;5072878;28;20572;-68
2021/12/30 07:11:02;;;;;;;0.30;0.30;;;11.40;99.90;;;;;;5073022;28;20193;-68
2021/12/30 07:13:28;;;;;;;0.30;0.30;;;11.40;99.90;;;;;;5073006;28;20174;-68
2021/12/30 07:15:53;;;;;;;0.30;0.30;;;11.40;99.90;;;;;;5072876;28;20161;-68
2021/12/30 07:18:19;;;;;;;0.90;0.90;;;11.30;99.90;;;;;;5074871;28;20635;-68
2021/12/30 07:20:45;;;;;;;0.30;0.30;;;11.30;99.90;;;;;;5076726;28;20169;-68
2021/12/30 07:23:10;;;;;;;0.30;0.30;;;11.30;99.90;;;;;;5076584;28;20165;-68
2021/12/30 07:25:36;;;;;;;0.30;0.30;;;11.30;99.90;;;;;;5076369;28;20190;-68
2021/12/30 07:28:03;;;;;;;0.40;0.40;;;11.40;99.90;;;;;;5076590;28;20169;-68
2021/12/30 07:30:29;;;;;;;0.30;0.30;;;11.40;99.90;;;;;;5076528;28;20158;-68
2021/12/30 07:32:55;;;;;;;0.30;0.30;;;11.40;99.90;;;;;;5076476;28;20202;-68
2021/12/30 07:35:22;;;;;;;0.30;0.30;;;11.50;99.90;;;;;;5076201;28;20192;-68
2021/12/30 07:37:49;;;;;;;0.30;0.30;;;11.40;99.90;;;;;;5076333;28;20256;-68
2021/12/30 07:40:16;;;;;;;0.30;0.30;;;11.50;99.90;;;;;;5076014;28;20178;-68
2021/12/30 07:42:42;;;;;;;0.30;0.30;;;11.40;99.90;;;;;;5076422;28;20326;-69
2021/12/30 07:45:09;;;;;;;0.30;0.30;;;11.50;99.90;;;;;;5075991;28;20272;-68
2021/12/30 07:47:35;;;;;;;0.30;0.30;;;11.50;99.90;;;;;;5076154;28;20173;-67
2021/12/30 07:50:02;;;;;;;0.30;0.30;;;11.50;99.90;;;;;;5074657;28;20643;-68
2021/12/30 07:52:27;;;;;;;0.30;0.30;;;11.60;99.90;;;;;;5076096;28;20193;-68
2021/12/30 07:54:53;;;;;;;0.30;0.30;;;11.50;99.90;;;;;;5076054;28;20200;-68
2021/12/30 07:57:21;;;;;;;0.30;0.30;;;11.40;99.90;;;;;;5075934;28;20166;-68
2021/12/30 07:59:53;;;;;;;0.30;0.30;;;11.50;99.90;;;;;;5075672;28;20177;-68
2021/12/30 08:02:19;;;;;;;0.30;0.30;;;11.50;99.90;;;;;;5075968;28;20267;-68
2021/12/30 08:04:45;;;;;;;0.30;0.30;;;11.60;99.90;;;;;;5075660;28;20197;-68
2021/12/30 08:07:11;;;;;;;0.30;0.30;;;11.60;99.90;;;;;;5075642;28;20181;-68
2021/12/30 08:09:37;;;;;;;0.30;0.30;;;11.70;99.90;;;;;;5075465;28;20224;-68
2021/12/30 08:12:03;;;;;;;0.30;0.30;;;11.80;99.90;;;;;;5074780;28;20695;-68
2021/12/30 08:14:29;;;;;;;0.30;0.30;;;11.90;99.90;;;;;;5075385;28;20434;-68
2021/12/30 08:16:55;;;;;;;0.30;0.30;;;12.00;99.90;;;;;;5075606;28;20249;-68
2021/12/30 08:19:21;;;;;;;0.30;0.30;;;12.00;99.90;;;;;;5075253;28;20542;-68
2021/12/30 08:21:47;;;;;;;0.30;0.30;;;12.00;99.90;;;;;;5075588;28;20182;-68
2021/12/30 08:24:12;;;;;;;0.30;0.30;;;12.00;99.90;;;;;;5075243;28;20197;-68
2021/12/30 08:26:39;;;;;;;0.30;0.30;;;12.00;99.90;;;;;;5075530;28;20411;-68
2021/12/30 08:29:05;;;;;;;0.30;0.30;;;12.20;99.90;;;;;;5074439;28;20166;-68
2021/12/30 08:31:34;;;;;;;0.30;0.30;;;12.30;99.90;;;;;;5075264;28;20478;-68
2021/12/30 08:34:00;;;;;;;0.30;0.30;;;12.30;99.90;;;;;;5075047;28;20855;-68
2021/12/30 08:36:25;;;;;;;0.30;0.30;;;12.40;99.90;;;;;;5075525;28;20173;-67
2021/12/30 08:38:51;;;;;;;0.30;0.30;;;12.50;99.90;;;;;;5074928;28;20510;-68
2021/12/30 08:41:16;;;;;;;0.73;0.70;;;12.70;99.90;;;;;;5075134;28;20165;-68
2021/12/30 08:43:42;;;;;;;0.30;0.30;;;12.80;99.90;;;;;;5075049;28;20181;-68
2021/12/30 08:46:08;;;;;;;0.30;0.30;;;13.00;99.90;;;;;;5074925;28;20178;-68
2021/12/30 08:48:33;;;;;;;0.57;0.57;;;13.00;99.90;;;;;;5074769;28;20264;-68
2021/12/30 08:50:59;;;;;;;0.30;0.30;;;13.00;99.90;;;;;;5074783;28;20224;-68
2021/12/30 08:53:25;;;;;;;0.30;0.30;;;13.10;99.90;;;;;;5075104;28;20631;-68
2021/12/30 08:55:54;;;;;;;0.30;0.30;;;13.10;99.90;;;;;;5074734;28;20177;-68
2021/12/30 08:58:19;;;;;;;0.30;0.30;;;13.20;99.90;;;;;;5074385;28;20439;-69
2021/12/30 09:00:47;;;;;;;0.40;0.40;;;13.20;99.90;;;;;;5074915;28;20432;-68
2021/12/30 09:03:14;;;;;;;0.30;0.30;;;13.30;99.90;;;;;;5074722;28;20524;-68
2021/12/30 09:05:39;;;;;;;0.40;0.40;;;13.40;99.90;;;;;;5074393;28;20427;-68
2021/12/30 09:08:06;;;;;;;0.30;0.30;;;13.50;99.90;;;;;;5074504;28;20403;-68
2021/12/30 09:10:37;;;;;;;0.30;0.30;;;13.50;99.90;;;;;;5074529;28;20487;-68
2021/12/30 09:13:03;;;;;;;0.30;0.30;;;13.40;99.90;;;;;;5074404;28;20447;-68
2021/12/30 09:15:30;;;;;;;0.30;0.30;;;13.50;99.90;;;;;;5074176;28;20420;-69
2021/12/30 09:17:57;;;;;;;0.30;0.30;;;13.50;99.90;;;;;;5074266;28;20403;-68
2021/12/30 09:20:23;;;;;;;1.67;1.67;;;13.60;99.90;;;;;;5074208;28;20402;-68
2021/12/30 09:22:50;;;;;;;0.30;0.30;;;13.60;99.90;;;;;;5074239;28;20416;-68
2021/12/30 09:25:19;;;;;;;0.30;0.30;;;13.60;99.90;;;;;;5074049;28;20427;-68
2021/12/30 09:27:45;;;;;;;0.30;0.30;;;13.60;99.90;;;;;;5074270;28;20396;-68
2021/12/30 09:30:13;;;;;;;0.30;0.30;;;13.50;99.90;;;;;;5073990;28;20434;-68
2021/12/30 09:32:41;;;;;;;0.30;0.30;;;13.60;99.90;;;;;;5073864;28;20251;-68
2021/12/30 09:35:07;;;;;;;0.30;0.30;;;13.70;99.90;;;;;;5073743;28;20517;-68
2021/12/30 09:37:33;;;;;;;0.30;0.30;;;13.80;99.90;;;;;;5073992;28;20392;-68
2021/12/30 09:39:59;;;;;;;0.40;0.40;;;13.90;99.90;;;;;;5073776;28;20445;-68
2021/12/30 09:42:25;;;;;;;0.30;0.30;;;14.00;99.90;;;;;;5073244;28;20176;-68
2021/12/30 09:44:51;;;;;;;0.30;0.30;;;14.00;99.90;;;;;;5073713;28;20426;-68
2021/12/30 09:47:17;;;;;;;0.70;0.70;;;14.10;99.90;;;;;;5073976;28;20782;-68
2021/12/30 09:49:44;;;;;;;0.30;0.30;;;14.10;99.90;;;;;;5073602;28;20180;-68
2021/12/30 09:52:10;;;;;;;0.30;0.30;;;14.10;99.90;;;;;;5073738;28;20447;-68
2021/12/30 09:54:36;;;;;;;0.30;0.30;;;14.10;99.90;;;;;;5073663;28;20501;-68
2021/12/30 09:57:02;;;;;;;0.30;0.30;;;14.10;99.90;;;;;;5073671;28;20917;-68
2021/12/30 09:59:29;;;;;;;0.30;0.30;;;14.00;99.90;;;;;;5073322;28;20195;-68
2021/12/30 10:01:55;;;;;;;0.30;0.30;;;13.90;99.90;;;;;;5073620;28;20400;-69
2021/12/30 10:04:32;;;;;;;0.30;0.30;;;13.90;99.90;;;;;;5073615;28;20431;-68
2021/12/30 10:06:59;;;;;;;0.30;0.30;;;13.90;99.90;;;;;;5073787;28;20172;-68
2021/12/30 10:09:45;;;;;;;0.30;0.30;;;13.80;99.90;;;;;;5073385;28;20442;-68
2021/12/30 10:12:12;;;;;;;0.30;0.30;;;13.80;99.90;;;;;;5073349;28;20522;-68
2021/12/30 10:14:39;;;;;;;0.30;0.30;;;13.80;99.90;;;;;;5073325;28;20455;-69
2021/12/30 10:17:21;;;;;;;0.30;0.30;;;13.70;99.90;;;;;;5073451;28;20909;-68
2021/12/30 10:19:49;;;;;;;0.30;0.30;;;13.70;99.90;;;;;;5073374;28;20733;-68
2021/12/30 10:22:17;;;;;;;0.30;0.30;;;13.60;99.90;;;;;;5073500;28;20489;-68
2021/12/30 10:24:44;;;;;;;0.30;0.30;;;13.60;99.90;;;;;;5073207;28;20438;-67
2021/12/30 10:27:09;;;;;;;0.30;0.30;;;13.70;99.90;;;;;;5073304;28;20413;-68
2021/12/30 10:29:43;;;;;;;0.30;0.30;;;13.70;99.90;;;;;;5073182;28;20406;-68
2021/12/30 10:32:14;;;;;;;0.30;0.30;;;13.70;99.90;;;;;;5073414;28;20223;-68
2021/12/30 10:35:02;;;;;;;0.30;0.30;;;13.60;99.90;;;;;;5073390;28;20820;-68
2021/12/30 10:37:28;;;;;;;0.30;0.30;;;13.80;99.90;;;;;;5073413;28;20404;-68
2021/12/30 10:39:54;;;;;;;0.30;0.30;;;13.70;99.90;;;;;;5073180;28;20411;-68
2021/12/30 10:42:21;;;;;;;0.30;0.30;;;13.80;99.90;;;;;;5073288;28;20205;-68
2021/12/30 10:44:56;;;;;;;0.30;0.30;;;13.80;99.90;;;;;;5073079;28;20189;-68
2021/12/30 10:47:26;;;;;;;0.30;0.30;;;13.90;99.90;;;;;;5073081;28;20375;-68
2021/12/30 10:50:01;;;;;;;0.47;0.47;;;14.00;99.90;;;;;;5072997;28;20415;-68
2021/12/30 10:52:28;;;;;;;0.30;0.30;;;14.00;99.90;;;;;;5073948;28;20810;-68
2021/12/30 10:54:55;;;;;;;0.30;0.30;;;13.40;99.90;;;;;;5077045;28;20457;-69
2021/12/30 10:57:20;;;;;;;0.30;0.30;;;13.50;99.90;;;;;;5077232;28;20507;-68
2021/12/30 10:59:50;;;;;;;0.30;0.30;;;13.60;99.90;;;;;;5076587;28;20514;-68
2021/12/30 11:02:21;;;;;;;0.30;0.30;;;13.70;99.90;;;;;;5076899;28;20173;-68
2021/12/30 11:04:49;;;;;;;0.30;0.30;;;13.60;99.90;;;;;;5076914;28;20446;-69
2021/12/30 11:07:21;;;;;;;0.30;0.30;;;13.60;99.90;;;;;;5076935;28;20468;-68
2021/12/30 11:09:56;;;;;;;0.40;0.40;;;13.60;99.90;;;;;;5076748;28;20471;-68
2021/12/30 11:12:25;;;;;;;0.30;0.30;;;13.80;99.90;;;;;;5076783;28;20986;-68
2021/12/30 11:14:50;;;;;;;0.30;0.30;;;13.90;99.90;;;;;;5076524;28;20434;-68
2021/12/30 11:17:21;;;;;;;0.30;0.30;;;13.80;99.90;;;;;;5076632;28;20395;-68
2021/12/30 11:19:49;;;;;;;0.40;0.40;;;13.80;99.90;;;;;;5075274;28;20170;-68
2021/12/30 11:22:18;;;;;;;0.30;0.30;;;13.60;99.90;;;;;;5076620;28;20447;-68
2021/12/30 11:24:45;;;;;;;0.30;0.30;;;13.60;99.90;;;;;;5077062;28;20435;-68
2021/12/30 11:27:13;;;;;;;0.30;0.30;;;13.70;99.90;;;;;;5076789;28;20986;-69
2021/12/30 11:29:43;;;;;;;0.30;0.30;;;13.90;99.90;;;;;;5076214;28;20636;-68
2021/12/30 11:32:09;;;;;;;0.30;0.30;;;14.00;99.90;;;;;;5076286;28;20914;-69
2021/12/30 11:34:35;;;;;;;0.30;0.30;;;14.10;99.90;;;;;;5076216;28;20427;-68
2021/12/30 11:37:02;;;;;;;0.30;0.30;;;14.30;99.90;;;;;;5076197;28;20767;-68
2021/12/30 11:39:28;;;;;;;0.30;0.30;;;14.40;99.90;;;;;;5074725;28;20446;-68
2021/12/30 11:42:07;;;;;;;0.30;0.30;;;14.50;99.90;;;;;;5076358;28;20422;-68
2021/12/30 11:44:39;;;;;;;0.30;0.30;;;14.40;99.90;;;;;;5076277;28;20439;-68
2021/12/30 11:47:27;;;;;;;0.30;0.30;;;14.40;99.90;;;;;;5076337;28;20461;-68
2021/12/30 11:49:58;;;;;;;0.30;0.30;;;14.50;99.90;;;;;;5075661;28;20772;-68
2021/12/30 11:52:58;;;;;;;0.30;0.30;;;14.40;99.90;;;;;;5075916;28;20478;-69
2021/12/30 11:55:42;;;;;;;0.30;0.30;;;14.50;99.90;;;;;;5075771;28;20412;-68
2021/12/30 11:58:50;;;;;;;0.30;0.30;;;14.50;99.90;;;;;;5075815;28;20392;-68
2021/12/30 12:01:19;;;;;;;0.40;0.40;;;14.50;99.90;;;;;;5074889;28;20423;-68
2021/12/30 12:03:53;;;;;;;0.30;0.30;;;14.50;99.90;;;;;;5074947;28;20467;-69
2021/12/30 12:06:25;;;;;;;0.30;0.30;;;14.50;99.90;;;;;;5075474;28;20396;-68
2021/12/30 12:09:16;;;;;;;0.30;0.30;;;14.50;99.90;;;;;;5075447;28;20812;-68
2021/12/30 12:11:41;;;;;;;0.30;0.30;;;14.40;99.90;;;;;;5075852;28;20458;-68
2021/12/30 12:14:31;;;;;;;0.30;0.30;;;14.40;99.90;;;;;;5075445;28;20780;-68
2021/12/30 12:17:10;;;;;;;0.30;0.30;;;14.40;99.90;;;;;;5075444;28;20160;-69
2021/12/30 12:19:54;;;;;;;0.30;0.30;;;14.50;99.90;;;;;;5075374;28;20388;-68
2021/12/30 12:22:20;;;;;;;0.30;0.30;;;14.30;99.90;;;;;;5075550;28;20403;-68
2021/12/30 12:24:46;;;;;;;0.40;0.40;;;14.30;99.90;;;;;;5075342;28;20432;-68
2021/12/30 12:27:34;;;;;;;0.30;0.30;;;14.30;99.90;;;;;;5075197;28;20178;-68
2021/12/30 12:30:00;;;;;;;0.30;0.30;;;14.20;99.90;;;;;;5075072;28;20483;-68
2021/12/30 12:32:29;;;;;;;0.30;0.30;;;14.30;99.90;;;;;;5075065;28;20447;-68
2021/12/30 12:34:56;;;;;;;0.30;0.30;;;14.20;99.90;;;;;;5075047;28;20800;-68
2021/12/30 12:37:33;;;;;;;0.30;0.30;;;14.30;99.90;;;;;;5075241;28;20404;-68
2021/12/30 12:40:12;;;;;;;0.30;0.30;;;14.30;99.90;;;;;;5074822;28;20411;-69
2021/12/30 12:42:50;;;;;;;0.30;0.30;;;14.20;99.90;;;;;;5075134;28;20412;-68
2021/12/30 12:45:31;;;;;;;0.30;0.30;;;14.30;99.90;;;;;;5074900;28;20438;-68
2021/12/30 12:48:18;;;;;;;0.30;0.30;;;14.30;99.90;;;;;;5074961;28;20411;-69
2021/12/30 12:50:46;;;;;;;0.30;0.30;;;14.30;99.90;;;;;;5075233;28;20814;-68